Houlton, ME

2:16 PM EDT on July 25, 2016 (GMT -0400)
Houlton Astrophysics LLC | | Change Station

Elev 400 ft 46.13 °N, 67.83 °W | Updated 13 minutes ago

Partly Cloudy
Partly Cloudy
82.2 °F
Feels Like 83 °F
N
1.1
Wind Variable Wind from NNE

Today
High -- | Low -- °F
--% Chance of Precip.
Yesterday
High -- | Low -- °F
Precip. -- in
Pressure 29.86 in
Visibility 10.0 miles
Clouds Few 5000 ft
Heat Index 83 °F
Dew Point 61 °F
Humidity 49%
Rainfall 0.06 in
Snow Depth Not available.
5:05 AM 8:09 PM
Waning Gibbous, 64% visible
METAR KHUL 251753Z AUTO 23007KT 190V250 10SM FEW050 27/14 A2986 RMK AO2 SLP109 T02720144 10278 20206 56018
Pressure 29.86 in
Visibility 10.0 miles
Clouds Few 5000 ft
Heat Index 83 °F
Dew Point 61 °F
Humidity 49%
Rainfall 0.06 in
Snow Depth Not available.
5:05 AM 8:09 PM
Waning Gibbous, 64% visible
METAR KHUL 251753Z AUTO 23007KT 190V250 10SM FEW050 27/14 A2986 RMK AO2 SLP109 T02720144 10278 20206 56018

10-Day Weather Forecast

Almanac

Astronomy

Jul. 25, 2016 Rise Set
Actual Time
Civil Twilight
Nautical Twilight
Astronomical Twilight
Moon
Length of Visible Light
Length of Day
Tomorrow will be .
, % of the Moon is Illuminated

Today's Extremes

State Highs State Lows

Community

WunderPhotos

Upload Photos

1,927,365 photos uploaded!

WunderBlog® & News

Nearby

Air Quality

  Air Quality AQ Index Pollutant
Not available.

Snow Depth

Station Depth Elevation

Earthquake Activity

City Distance Mag. Time & Date
Minimum magnitude displayed is 2.5.

Coastal Water Temperatures

Place Temperature

Stations

Nearby Weather Stations

Station Location Temp. Windchill Dew Point Humidity Wind Precip. Elev Updated Type
                   

Watches & Warnings

There are currently no watches in effect.